Asharoken, New York
Current Conditions -  °F | °C
As of 4:53 PM on Thursday 18 Dec 2014 (Local Time) from KFRG Reporting Station
Broken Clouds Broken Clouds  
Wind Chill: 32°   Ceiling: 3500
Heat Index: 40°   Visibility: 10mi
Dew Point: 25°   Wind: 15mph
Humidity: 55%   Direction: 310°NW
Pressure: 29.95"   Gusts: 23mph
Location:  40.9096°N, 73.3231°W
Report Text: KFRG 182153Z 31013G20KT 10SM BKN035 04/M04 A2995 RMK AO2 SLP144 T00441039
Loading
Personal Weather Stations






























Interactive Weather Map New forecast layout! Learn more

10-Day Weather Forecast

Advertisements
Track Severe Weather on mobile